sensor_id;sensor_type;location;lat;lon;timestamp;P1;durP1;ratioP1;P2;durP2;ratioP2
5955;SDS011;3004;48.080;11.600;2022-11-20T00:01:40;67.73;;;7.20;;
5955;SDS011;3004;48.080;11.600;2022-11-20T00:04:09;67.67;;;7.10;;
5955;SDS011;3004;48.080;11.600;2022-11-20T00:06:41;67.40;;;7.00;;
5955;SDS011;3004;48.080;11.600;2022-11-20T00:09:09;67.73;;;7.60;;
5955;SDS011;3004;48.080;11.600;2022-11-20T00:11:38;67.87;;;7.07;;
5955;SDS011;3004;48.080;11.600;2022-11-20T00:14:06;67.77;;;7.07;;
5955;SDS011;3004;48.080;11.600;2022-11-20T00:16:41;67.67;;;6.97;;
5955;SDS011;3004;48.080;11.600;2022-11-20T00:19:12;68.00;;;7.10;;
5955;SDS011;3004;48.080;11.600;2022-11-20T00:21:39;67.97;;;7.00;;
5955;SDS011;3004;48.080;11.600;2022-11-20T00:24:08;67.60;;;7.07;;
5955;SDS011;3004;48.080;11.600;2022-11-20T00:26:42;67.50;;;7.07;;
5955;SDS011;3004;48.080;11.600;2022-11-20T00:29:09;70.97;;;8.53;;
5955;SDS011;3004;48.080;11.600;2022-11-20T00:31:36;67.67;;;6.97;;
5955;SDS011;3004;48.080;11.600;2022-11-20T00:34:05;68.63;;;8.23;;
5955;SDS011;3004;48.080;11.600;2022-11-20T00:36:32;67.73;;;6.80;;
5955;SDS011;3004;48.080;11.600;2022-11-20T00:39:02;67.37;;;6.77;;
5955;SDS011;3004;48.080;11.600;2022-11-20T00:41:44;67.87;;;6.93;;
5955;SDS011;3004;48.080;11.600;2022-11-20T00:44:11;68.90;;;7.30;;
5955;SDS011;3004;48.080;11.600;2022-11-20T00:46:38;67.20;;;6.80;;
5955;SDS011;3004;48.080;11.600;2022-11-20T00:49:05;67.57;;;6.80;;
5955;SDS011;3004;48.080;11.600;2022-11-20T00:51:34;67.50;;;6.83;;
5955;SDS011;3004;48.080;11.600;2022-11-20T00:54:01;69.47;;;7.83;;
5955;SDS011;3004;48.080;11.600;2022-11-20T00:56:30;67.37;;;6.93;;
5955;SDS011;3004;48.080;11.600;2022-11-20T00:58:58;67.77;;;7.27;;
5955;SDS011;3004;48.080;11.600;2022-11-20T01:01:36;67.87;;;7.10;;
5955;SDS011;3004;48.080;11.600;2022-11-20T01:04:03;67.67;;;7.07;;
5955;SDS011;3004;48.080;11.600;2022-11-20T01:06:34;67.80;;;6.90;;
5955;SDS011;3004;48.080;11.600;2022-11-20T01:09:03;67.70;;;6.73;;
5955;SDS011;3004;48.080;11.600;2022-11-20T01:11:33;67.47;;;6.73;;
5955;SDS011;3004;48.080;11.600;2022-11-20T01:14:03;67.27;;;6.53;;
5955;SDS011;3004;48.080;11.600;2022-11-20T01:16:33;66.90;;;6.40;;
5955;SDS011;3004;48.080;11.600;2022-11-20T01:19:10;67.43;;;6.40;;
5955;SDS011;3004;48.080;11.600;2022-11-20T01:21:57;67.37;;;6.47;;
5955;SDS011;3004;48.080;11.600;2022-11-20T01:24:25;67.47;;;6.70;;
5955;SDS011;3004;48.080;11.600;2022-11-20T01:26:54;67.27;;;6.57;;
5955;SDS011;3004;48.080;11.600;2022-11-20T01:29:42;67.57;;;6.57;;
5955;SDS011;3004;48.080;11.600;2022-11-20T01:32:31;67.67;;;6.70;;
5955;SDS011;3004;48.080;11.600;2022-11-20T01:34:58;67.00;;;6.43;;
5955;SDS011;3004;48.080;11.600;2022-11-20T01:37:25;67.47;;;6.90;;
5955;SDS011;3004;48.080;11.600;2022-11-20T01:39:54;67.17;;;6.13;;
5955;SDS011;3004;48.080;11.600;2022-11-20T01:42:25;67.17;;;6.50;;
5955;SDS011;3004;48.080;11.600;2022-11-20T01:48:22;67.33;;;6.20;;
5955;SDS011;3004;48.080;11.600;2022-11-20T01:50:52;67.23;;;6.10;;
5955;SDS011;3004;48.080;11.600;2022-11-20T01:53:24;67.07;;;6.43;;
5955;SDS011;3004;48.080;11.600;2022-11-20T01:56:01;66.50;;;6.10;;
5955;SDS011;3004;48.080;11.600;2022-11-20T01:58:33;67.37;;;6.50;;
5955;SDS011;3004;48.080;11.600;2022-11-20T02:01:07;66.63;;;6.00;;
5955;SDS011;3004;48.080;11.600;2022-11-20T02:03:50;67.27;;;6.60;;
5955;SDS011;3004;48.080;11.600;2022-11-20T02:06:31;67.50;;;6.97;;
5955;SDS011;3004;48.080;11.600;2022-11-20T02:09:09;66.40;;;5.73;;
5955;SDS011;3004;48.080;11.600;2022-11-20T02:11:39;66.57;;;5.70;;
5955;SDS011;3004;48.080;11.600;2022-11-20T02:14:08;66.40;;;5.67;;
5955;SDS011;3004;48.080;11.600;2022-11-20T02:16:48;67.70;;;6.30;;
5955;SDS011;3004;48.080;11.600;2022-11-20T02:19:19;66.20;;;5.50;;
5955;SDS011;3004;48.080;11.600;2022-11-20T02:21:59;66.33;;;5.60;;
5955;SDS011;3004;48.080;11.600;2022-11-20T02:24:35;66.17;;;5.50;;
5955;SDS011;3004;48.080;11.600;2022-11-20T02:27:08;66.43;;;5.50;;
5955;SDS011;3004;48.080;11.600;2022-11-20T02:29:48;66.20;;;5.37;;
5955;SDS011;3004;48.080;11.600;2022-11-20T02:32:23;66.57;;;5.70;;
5955;SDS011;3004;48.080;11.600;2022-11-20T02:34:55;65.80;;;5.20;;
5955;SDS011;3004;48.080;11.600;2022-11-20T02:37:24;66.10;;;5.20;;
5955;SDS011;3004;48.080;11.600;2022-11-20T02:39:59;66.27;;;5.30;;
5955;SDS011;3004;48.080;11.600;2022-11-20T02:42:34;65.90;;;5.13;;
5955;SDS011;3004;48.080;11.600;2022-11-20T02:45:53;65.77;;;4.90;;
5955;SDS011;3004;48.080;11.600;2022-11-20T02:48:36;66.23;;;5.00;;
5955;SDS011;3004;48.080;11.600;2022-11-20T02:51:03;65.97;;;5.03;;
5955;SDS011;3004;48.080;11.600;2022-11-20T02:53:33;66.23;;;5.00;;
5955;SDS011;3004;48.080;11.600;2022-11-20T02:56:00;66.03;;;4.83;;
5955;SDS011;3004;48.080;11.600;2022-11-20T02:58:29;66.67;;;5.50;;
5955;SDS011;3004;48.080;11.600;2022-11-20T03:00:59;65.77;;;4.90;;
5955;SDS011;3004;48.080;11.600;2022-11-20T03:03:26;66.60;;;5.40;;
5955;SDS011;3004;48.080;11.600;2022-11-20T03:05:54;67.40;;;6.47;;
5955;SDS011;3004;48.080;11.600;2022-11-20T03:08:21;66.60;;;5.93;;
5955;SDS011;3004;48.080;11.600;2022-11-20T03:10:48;65.67;;;4.90;;
5955;SDS011;3004;48.080;11.600;2022-11-20T03:13:16;66.20;;;5.13;;
5955;SDS011;3004;48.080;11.600;2022-11-20T03:15:50;65.83;;;4.83;;
5955;SDS011;3004;48.080;11.600;2022-11-20T03:18:18;66.70;;;5.93;;
5955;SDS011;3004;48.080;11.600;2022-11-20T03:20:46;66.27;;;5.67;;
5955;SDS011;3004;48.080;11.600;2022-11-20T03:23:13;66.70;;;5.83;;
5955;SDS011;3004;48.080;11.600;2022-11-20T03:25:40;66.00;;;4.60;;
5955;SDS011;3004;48.080;11.600;2022-11-20T03:28:18;65.77;;;4.50;;
5955;SDS011;3004;48.080;11.600;2022-11-20T03:30:57;65.70;;;4.47;;
5955;SDS011;3004;48.080;11.600;2022-11-20T03:33:29;65.67;;;4.80;;
5955;SDS011;3004;48.080;11.600;2022-11-20T03:36:15;65.40;;;4.40;;
5955;SDS011;3004;48.080;11.600;2022-11-20T03:38:49;66.03;;;4.60;;
5955;SDS011;3004;48.080;11.600;2022-11-20T03:41:34;65.50;;;4.30;;
5955;SDS011;3004;48.080;11.600;2022-11-20T03:44:05;65.67;;;4.43;;
5955;SDS011;3004;48.080;11.600;2022-11-20T03:46:36;65.40;;;4.33;;
5955;SDS011;3004;48.080;11.600;2022-11-20T03:49:04;65.30;;;4.30;;
5955;SDS011;3004;48.080;11.600;2022-11-20T03:51:32;65.67;;;4.40;;
5955;SDS011;3004;48.080;11.600;2022-11-20T03:54:02;67.27;;;5.13;;
5955;SDS011;3004;48.080;11.600;2022-11-20T03:56:31;65.67;;;4.30;;
5955;SDS011;3004;48.080;11.600;2022-11-20T03:59:00;65.30;;;4.10;;
5955;SDS011;3004;48.080;11.600;2022-11-20T04:01:29;65.47;;;4.10;;
5955;SDS011;3004;48.080;11.600;2022-11-20T04:03:57;65.27;;;4.03;;
5955;SDS011;3004;48.080;11.600;2022-11-20T04:06:30;65.20;;;4.00;;
5955;SDS011;3004;48.080;11.600;2022-11-20T04:09:00;66.43;;;5.03;;
5955;SDS011;3004;48.080;11.600;2022-11-20T04:11:28;65.03;;;4.10;;
5955;SDS011;3004;48.080;11.600;2022-11-20T04:14:02;65.53;;;4.00;;
5955;SDS011;3004;48.080;11.600;2022-11-20T04:16:31;65.40;;;4.00;;
5955;SDS011;3004;48.080;11.600;2022-11-20T04:19:01;65.73;;;4.30;;
5955;SDS011;3004;48.080;11.600;2022-11-20T04:21:32;65.43;;;4.00;;
5955;SDS011;3004;48.080;11.600;2022-11-20T04:24:04;65.20;;;4.10;;
5955;SDS011;3004;48.080;11.600;2022-11-20T04:26:33;65.40;;;4.10;;
5955;SDS011;3004;48.080;11.600;2022-11-20T04:29:04;65.37;;;3.90;;
5955;SDS011;3004;48.080;11.600;2022-11-20T04:34:53;65.33;;;4.10;;
5955;SDS011;3004;48.080;11.600;2022-11-20T04:37:21;65.27;;;4.10;;
5955;SDS011;3004;48.080;11.600;2022-11-20T04:39:48;65.40;;;4.10;;
5955;SDS011;3004;48.080;11.600;2022-11-20T04:42:18;65.67;;;4.20;;
5955;SDS011;3004;48.080;11.600;2022-11-20T04:44:57;65.30;;;4.17;;
5955;SDS011;3004;48.080;11.600;2022-11-20T04:47:24;64.97;;;4.00;;
5955;SDS011;3004;48.080;11.600;2022-11-20T04:49:51;65.37;;;3.90;;
5955;SDS011;3004;48.080;11.600;2022-11-20T04:52:18;65.80;;;4.20;;
5955;SDS011;3004;48.080;11.600;2022-11-20T04:54:47;66.00;;;4.60;;
5955;SDS011;3004;48.080;11.600;2022-11-20T04:57:17;65.10;;;3.80;;
5955;SDS011;3004;48.080;11.600;2022-11-20T04:59:47;65.17;;;3.90;;
5955;SDS011;3004;48.080;11.600;2022-11-20T05:02:17;65.10;;;3.60;;
5955;SDS011;3004;48.080;11.600;2022-11-20T05:04:45;65.17;;;3.70;;
5955;SDS011;3004;48.080;11.600;2022-11-20T05:07:12;65.00;;;3.70;;
5955;SDS011;3004;48.080;11.600;2022-11-20T05:09:40;64.80;;;3.80;;
5955;SDS011;3004;48.080;11.600;2022-11-20T05:12:11;65.10;;;3.80;;
5955;SDS011;3004;48.080;11.600;2022-11-20T05:14:40;65.10;;;3.70;;
5955;SDS011;3004;48.080;11.600;2022-11-20T05:17:09;65.47;;;4.10;;
5955;SDS011;3004;48.080;11.600;2022-11-20T05:19:37;65.23;;;3.80;;
5955;SDS011;3004;48.080;11.600;2022-11-20T05:22:10;65.17;;;3.80;;
5955;SDS011;3004;48.080;11.600;2022-11-20T05:24:47;64.93;;;3.50;;
5955;SDS011;3004;48.080;11.600;2022-11-20T05:27:16;65.30;;;3.87;;
5955;SDS011;3004;48.080;11.600;2022-11-20T05:29:46;65.53;;;4.00;;
5955;SDS011;3004;48.080;11.600;2022-11-20T05:32:14;65.07;;;3.60;;
5955;SDS011;3004;48.080;11.600;2022-11-20T05:34:41;65.00;;;3.70;;
5955;SDS011;3004;48.080;11.600;2022-11-20T05:37:08;65.27;;;3.70;;
5955;SDS011;3004;48.080;11.600;2022-11-20T05:39:36;64.87;;;3.57;;
5955;SDS011;3004;48.080;11.600;2022-11-20T05:42:03;64.73;;;3.50;;
5955;SDS011;3004;48.080;11.600;2022-11-20T05:44:51;64.93;;;3.50;;
5955;SDS011;3004;48.080;11.600;2022-11-20T05:47:22;65.17;;;3.50;;
5955;SDS011;3004;48.080;11.600;2022-11-20T05:49:58;66.60;;;4.43;;
5955;SDS011;3004;48.080;11.600;2022-11-20T05:52:28;65.90;;;4.67;;
5955;SDS011;3004;48.080;11.600;2022-11-20T05:55:02;65.23;;;3.90;;
5955;SDS011;3004;48.080;11.600;2022-11-20T05:57:58;65.37;;;4.00;;
5955;SDS011;3004;48.080;11.600;2022-11-20T06:00:30;65.07;;;3.53;;
5955;SDS011;3004;48.080;11.600;2022-11-20T06:03:00;65.43;;;3.60;;
5955;SDS011;3004;48.080;11.600;2022-11-20T06:05:27;67.03;;;5.70;;
5955;SDS011;3004;48.080;11.600;2022-11-20T06:07:54;65.40;;;3.60;;
5955;SDS011;3004;48.080;11.600;2022-11-20T06:20:19;65.37;;;3.63;;
5955;SDS011;3004;48.080;11.600;2022-11-20T06:23:09;65.37;;;3.80;;
5955;SDS011;3004;48.080;11.600;2022-11-20T06:29:22;65.00;;;3.90;;
5955;SDS011;3004;48.080;11.600;2022-11-20T06:45:05;64.63;;;3.20;;
5955;SDS011;3004;48.080;11.600;2022-11-20T06:47:45;64.27;;;3.13;;
5955;SDS011;3004;48.080;11.600;2022-11-20T06:50:12;64.40;;;3.00;;
5955;SDS011;3004;48.080;11.600;2022-11-20T06:56:36;64.27;;;3.20;;
5955;SDS011;3004;48.080;11.600;2022-11-20T08:12:51;66.03;;;4.13;;
5955;SDS011;3004;48.080;11.600;2022-11-20T08:21:45;64.57;;;3.37;;
5955;SDS011;3004;48.080;11.600;2022-11-20T08:37:14;64.53;;;2.70;;
5955;SDS011;3004;48.080;11.600;2022-11-20T08:46:31;64.43;;;2.70;;
5955;SDS011;3004;48.080;11.600;2022-11-20T08:49:01;64.10;;;2.50;;
5955;SDS011;3004;48.080;11.600;2022-11-20T08:51:29;64.43;;;2.80;;
5955;SDS011;3004;48.080;11.600;2022-11-20T08:53:59;64.00;;;2.47;;
5955;SDS011;3004;48.080;11.600;2022-11-20T08:56:26;64.47;;;2.50;;
5955;SDS011;3004;48.080;11.600;2022-11-20T08:58:53;64.17;;;2.40;;
5955;SDS011;3004;48.080;11.600;2022-11-20T09:01:21;64.47;;;2.57;;
5955;SDS011;3004;48.080;11.600;2022-11-20T09:03:52;64.37;;;2.50;;
5955;SDS011;3004;48.080;11.600;2022-11-20T09:06:24;64.27;;;2.30;;
5955;SDS011;3004;48.080;11.600;2022-11-20T09:08:52;64.67;;;2.30;;
5955;SDS011;3004;48.080;11.600;2022-11-20T09:11:22;64.67;;;2.50;;
5955;SDS011;3004;48.080;11.600;2022-11-20T09:13:51;64.57;;;2.10;;
5955;SDS011;3004;48.080;11.600;2022-11-20T09:16:19;64.67;;;1.90;;
5955;SDS011;3004;48.080;11.600;2022-11-20T09:18:51;64.30;;;1.87;;
5955;SDS011;3004;48.080;11.600;2022-11-20T09:24:57;64.37;;;1.70;;
5955;SDS011;3004;48.080;11.600;2022-11-20T09:34:12;64.20;;;1.93;;
5955;SDS011;3004;48.080;11.600;2022-11-20T09:36:44;64.40;;;1.80;;
5955;SDS011;3004;48.080;11.600;2022-11-20T09:39:16;64.73;;;1.60;;
5955;SDS011;3004;48.080;11.600;2022-11-20T09:41:49;64.37;;;1.80;;
5955;SDS011;3004;48.080;11.600;2022-11-20T09:44:40;64.57;;;1.70;;
5955;SDS011;3004;48.080;11.600;2022-11-20T09:47:47;64.67;;;1.70;;
5955;SDS011;3004;48.080;11.600;2022-11-20T09:54:03;64.37;;;1.50;;
5955;SDS011;3004;48.080;11.600;2022-11-20T09:56:39;64.67;;;1.40;;
5955;SDS011;3004;48.080;11.600;2022-11-20T09:59:15;64.47;;;1.50;;
5955;SDS011;3004;48.080;11.600;2022-11-20T10:01:59;64.40;;;1.70;;
5955;SDS011;3004;48.080;11.600;2022-11-20T10:04:29;65.00;;;1.50;;
5955;SDS011;3004;48.080;11.600;2022-11-20T10:07:00;65.00;;;1.50;;
5955;SDS011;3004;48.080;11.600;2022-11-20T10:09:37;64.57;;;1.40;;
5955;SDS011;3004;48.080;11.600;2022-11-20T10:12:11;64.77;;;1.30;;
5955;SDS011;3004;48.080;11.600;2022-11-20T10:14:51;65.40;;;1.80;;
5955;SDS011;3004;48.080;11.600;2022-11-20T10:17:53;64.93;;;1.40;;
5955;SDS011;3004;48.080;11.600;2022-11-20T10:20:56;64.93;;;1.40;;
5955;SDS011;3004;48.080;11.600;2022-11-20T10:23:55;64.97;;;1.30;;
5955;SDS011;3004;48.080;11.600;2022-11-20T10:26:50;67.27;;;1.83;;
5955;SDS011;3004;48.080;11.600;2022-11-20T10:29:40;65.03;;;1.53;;
5955;SDS011;3004;48.080;11.600;2022-11-20T10:32:23;65.27;;;1.40;;
5955;SDS011;3004;48.080;11.600;2022-11-20T10:35:01;65.27;;;1.30;;
5955;SDS011;3004;48.080;11.600;2022-11-20T10:37:47;64.60;;;1.50;;
5955;SDS011;3004;48.080;11.600;2022-11-20T10:43:15;65.00;;;1.30;;
5955;SDS011;3004;48.080;11.600;2022-11-20T11:00:19;65.30;;;1.20;;
5955;SDS011;3004;48.080;11.600;2022-11-20T11:02:53;65.43;;;1.20;;
5955;SDS011;3004;48.080;11.600;2022-11-20T11:09:09;65.27;;;1.50;;
5955;SDS011;3004;48.080;11.600;2022-11-20T11:35:00;65.27;;;1.20;;
5955;SDS011;3004;48.080;11.600;2022-11-20T11:37:32;65.00;;;1.20;;
5955;SDS011;3004;48.080;11.600;2022-11-20T11:40:05;64.97;;;1.30;;
5955;SDS011;3004;48.080;11.600;2022-11-20T12:03:37;65.10;;;1.10;;
5955;SDS011;3004;48.080;11.600;2022-11-20T12:06:24;65.50;;;1.30;;
5955;SDS011;3004;48.080;11.600;2022-11-20T12:25:47;65.53;;;1.40;;
5955;SDS011;3004;48.080;11.600;2022-11-20T12:31:38;65.37;;;1.40;;
5955;SDS011;3004;48.080;11.600;2022-11-20T12:34:24;64.93;;;1.50;;
5955;SDS011;3004;48.080;11.600;2022-11-20T12:43:26;64.67;;;1.90;;
5955;SDS011;3004;48.080;11.600;2022-11-20T12:46:18;65.57;;;2.70;;
5955;SDS011;3004;48.080;11.600;2022-11-20T12:52:11;65.07;;;2.40;;
5955;SDS011;3004;48.080;11.600;2022-11-20T12:57:47;64.77;;;2.40;;
5955;SDS011;3004;48.080;11.600;2022-11-20T13:00:33;64.70;;;2.50;;
5955;SDS011;3004;48.080;11.600;2022-11-20T13:13:11;64.50;;;2.40;;
5955;SDS011;3004;48.080;11.600;2022-11-20T13:15:58;64.87;;;2.50;;
5955;SDS011;3004;48.080;11.600;2022-11-20T13:35:56;65.83;;;3.40;;
5955;SDS011;3004;48.080;11.600;2022-11-20T13:38:40;67.20;;;4.93;;
5955;SDS011;3004;48.080;11.600;2022-11-20T13:44:34;66.13;;;4.00;;
5955;SDS011;3004;48.080;11.600;2022-11-20T13:57:08;66.13;;;3.90;;
5955;SDS011;3004;48.080;11.600;2022-11-20T13:59:53;65.57;;;3.57;;
5955;SDS011;3004;48.080;11.600;2022-11-20T14:02:25;65.50;;;3.30;;
5955;SDS011;3004;48.080;11.600;2022-11-20T14:04:56;65.27;;;3.30;;
5955;SDS011;3004;48.080;11.600;2022-11-20T14:07:31;65.53;;;3.20;;
5955;SDS011;3004;48.080;11.600;2022-11-20T14:10:18;65.17;;;3.20;;
5955;SDS011;3004;48.080;11.600;2022-11-20T14:12:50;64.60;;;3.00;;
5955;SDS011;3004;48.080;11.600;2022-11-20T14:15:36;64.97;;;2.97;;
5955;SDS011;3004;48.080;11.600;2022-11-20T14:28:19;64.53;;;2.70;;
5955;SDS011;3004;48.080;11.600;2022-11-20T14:30:52;64.70;;;2.73;;
5955;SDS011;3004;48.080;11.600;2022-11-20T14:33:22;64.80;;;2.70;;
5955;SDS011;3004;48.080;11.600;2022-11-20T15:06:25;64.27;;;2.40;;
5955;SDS011;3004;48.080;11.600;2022-11-20T15:09:02;64.40;;;2.30;;
5955;SDS011;3004;48.080;11.600;2022-11-20T15:11:32;64.33;;;2.20;;
5955;SDS011;3004;48.080;11.600;2022-11-20T15:14:02;64.47;;;2.20;;
5955;SDS011;3004;48.080;11.600;2022-11-20T15:16:36;64.63;;;2.30;;
5955;SDS011;3004;48.080;11.600;2022-11-20T15:19:07;64.67;;;2.20;;
5955;SDS011;3004;48.080;11.600;2022-11-20T15:28:33;64.67;;;2.20;;
5955;SDS011;3004;48.080;11.600;2022-11-20T15:31:06;64.10;;;2.10;;
5955;SDS011;3004;48.080;11.600;2022-11-20T15:36:58;64.63;;;2.10;;
5955;SDS011;3004;48.080;11.600;2022-11-20T15:39:29;64.40;;;2.20;;
5955;SDS011;3004;48.080;11.600;2022-11-20T15:45:22;64.37;;;2.10;;
5955;SDS011;3004;48.080;11.600;2022-11-20T15:51:43;64.60;;;2.13;;
5955;SDS011;3004;48.080;11.600;2022-11-20T16:00:57;64.83;;;2.20;;
5955;SDS011;3004;48.080;11.600;2022-11-20T16:06:48;64.40;;;2.10;;
5955;SDS011;3004;48.080;11.600;2022-11-20T16:12:54;64.73;;;2.20;;
5955;SDS011;3004;48.080;11.600;2022-11-20T16:19:04;64.63;;;2.30;;
5955;SDS011;3004;48.080;11.600;2022-11-20T16:21:36;66.70;;;3.83;;
5955;SDS011;3004;48.080;11.600;2022-11-20T16:24:07;64.10;;;2.33;;
5955;SDS011;3004;48.080;11.600;2022-11-20T16:30:10;64.87;;;2.30;;
5955;SDS011;3004;48.080;11.600;2022-11-20T16:32:38;65.17;;;2.90;;
5955;SDS011;3004;48.080;11.600;2022-11-20T16:35:14;64.50;;;2.47;;
5955;SDS011;3004;48.080;11.600;2022-11-20T16:41:06;64.50;;;2.40;;
5955;SDS011;3004;48.080;11.600;2022-11-20T16:43:48;64.77;;;2.50;;
5955;SDS011;3004;48.080;11.600;2022-11-20T16:49:38;64.97;;;2.60;;
5955;SDS011;3004;48.080;11.600;2022-11-20T16:52:10;64.87;;;2.70;;
5955;SDS011;3004;48.080;11.600;2022-11-20T16:54:54;65.23;;;2.60;;
5955;SDS011;3004;48.080;11.600;2022-11-20T17:00:53;64.97;;;2.70;;
5955;SDS011;3004;48.080;11.600;2022-11-20T17:03:22;64.77;;;2.60;;
5955;SDS011;3004;48.080;11.600;2022-11-20T17:05:51;65.17;;;2.80;;
5955;SDS011;3004;48.080;11.600;2022-11-20T17:11:06;64.97;;;2.80;;
5955;SDS011;3004;48.080;11.600;2022-11-20T17:13:36;65.10;;;2.70;;
5955;SDS011;3004;48.080;11.600;2022-11-20T17:19:57;65.13;;;2.87;;
5955;SDS011;3004;48.080;11.600;2022-11-20T17:22:24;65.53;;;3.00;;
5955;SDS011;3004;48.080;11.600;2022-11-20T17:31:04;65.47;;;3.00;;
5955;SDS011;3004;48.080;11.600;2022-11-20T17:33:34;65.33;;;3.07;;
5955;SDS011;3004;48.080;11.600;2022-11-20T17:36:03;65.33;;;3.00;;
5955;SDS011;3004;48.080;11.600;2022-11-20T17:38:47;65.57;;;3.10;;
5955;SDS011;3004;48.080;11.600;2022-11-20T17:51:18;65.30;;;3.30;;
5955;SDS011;3004;48.080;11.600;2022-11-20T18:00:32;65.30;;;3.40;;
5955;SDS011;3004;48.080;11.600;2022-11-20T18:07:00;65.83;;;3.60;;
5955;SDS011;3004;48.080;11.600;2022-11-20T18:09:29;66.33;;;3.63;;
5955;SDS011;3004;48.080;11.600;2022-11-20T18:11:57;65.87;;;3.77;;
5955;SDS011;3004;48.080;11.600;2022-11-20T18:14:24;66.17;;;3.80;;
5955;SDS011;3004;48.080;11.600;2022-11-20T18:16:57;66.20;;;3.93;;
5955;SDS011;3004;48.080;11.600;2022-11-20T18:22:50;66.30;;;4.30;;
5955;SDS011;3004;48.080;11.600;2022-11-20T18:25:17;66.20;;;4.00;;
5955;SDS011;3004;48.080;11.600;2022-11-20T18:27:51;65.37;;;4.00;;
5955;SDS011;3004;48.080;11.600;2022-11-20T18:34:01;66.27;;;4.40;;
5955;SDS011;3004;48.080;11.600;2022-11-20T18:53:06;66.77;;;4.77;;
5955;SDS011;3004;48.080;11.600;2022-11-20T18:55:36;66.77;;;4.80;;
5955;SDS011;3004;48.080;11.600;2022-11-20T18:58:12;67.07;;;4.90;;
5955;SDS011;3004;48.080;11.600;2022-11-20T19:01:31;67.17;;;4.90;;
5955;SDS011;3004;48.080;11.600;2022-11-20T19:11:10;67.27;;;5.17;;
5955;SDS011;3004;48.080;11.600;2022-11-20T19:34:50;67.17;;;5.23;;
5955;SDS011;3004;48.080;11.600;2022-11-20T19:37:21;67.33;;;5.40;;
5955;SDS011;3004;48.080;11.600;2022-11-20T19:39:51;67.00;;;5.30;;
5955;SDS011;3004;48.080;11.600;2022-11-20T19:42:23;67.17;;;5.30;;
5955;SDS011;3004;48.080;11.600;2022-11-20T19:44:53;68.07;;;6.47;;
5955;SDS011;3004;48.080;11.600;2022-11-20T19:47:22;66.97;;;5.30;;
5955;SDS011;3004;48.080;11.600;2022-11-20T19:50:17;67.10;;;5.33;;
5955;SDS011;3004;48.080;11.600;2022-11-20T19:52:51;70.00;;;6.93;;
5955;SDS011;3004;48.080;11.600;2022-11-20T19:55:25;67.17;;;5.80;;
5955;SDS011;3004;48.080;11.600;2022-11-20T19:57:54;68.27;;;6.30;;
5955;SDS011;3004;48.080;11.600;2022-11-20T20:00:25;67.03;;;5.10;;
5955;SDS011;3004;48.080;11.600;2022-11-20T20:02:52;66.77;;;5.20;;
5955;SDS011;3004;48.080;11.600;2022-11-20T20:05:39;66.50;;;5.10;;
5955;SDS011;3004;48.080;11.600;2022-11-20T20:08:13;66.93;;;5.10;;
5955;SDS011;3004;48.080;11.600;2022-11-20T20:10:47;66.70;;;5.13;;
5955;SDS011;3004;48.080;11.600;2022-11-20T20:13:14;67.00;;;5.00;;
5955;SDS011;3004;48.080;11.600;2022-11-20T20:15:46;66.97;;;5.17;;
5955;SDS011;3004;48.080;11.600;2022-11-20T20:18:23;68.83;;;5.60;;
5955;SDS011;3004;48.080;11.600;2022-11-20T20:20:54;67.03;;;5.03;;
5955;SDS011;3004;48.080;11.600;2022-11-20T20:23:34;66.87;;;5.17;;
5955;SDS011;3004;48.080;11.600;2022-11-20T20:26:20;66.60;;;5.17;;
5955;SDS011;3004;48.080;11.600;2022-11-20T20:28:55;66.83;;;5.10;;
5955;SDS011;3004;48.080;11.600;2022-11-20T20:31:34;66.67;;;5.30;;
5955;SDS011;3004;48.080;11.600;2022-11-20T20:34:05;67.13;;;5.10;;
5955;SDS011;3004;48.080;11.600;2022-11-20T20:36:42;67.07;;;5.10;;
5955;SDS011;3004;48.080;11.600;2022-11-20T20:39:16;66.83;;;5.30;;
5955;SDS011;3004;48.080;11.600;2022-11-20T20:45:11;67.27;;;5.60;;
5955;SDS011;3004;48.080;11.600;2022-11-20T20:47:40;67.23;;;5.63;;
5955;SDS011;3004;48.080;11.600;2022-11-20T20:50:17;67.27;;;5.73;;
5955;SDS011;3004;48.080;11.600;2022-11-20T21:02:33;68.90;;;6.70;;
5955;SDS011;3004;48.080;11.600;2022-11-20T21:05:21;67.77;;;5.93;;
5955;SDS011;3004;48.080;11.600;2022-11-20T21:07:58;67.83;;;6.13;;
5955;SDS011;3004;48.080;11.600;2022-11-20T21:10:44;67.77;;;5.90;;
5955;SDS011;3004;48.080;11.600;2022-11-20T21:13:44;67.57;;;5.90;;
5955;SDS011;3004;48.080;11.600;2022-11-20T21:16:45;67.47;;;5.80;;
5955;SDS011;3004;48.080;11.600;2022-11-20T21:22:41;67.90;;;6.27;;
5955;SDS011;3004;48.080;11.600;2022-11-20T21:25:09;67.20;;;5.70;;
5955;SDS011;3004;48.080;11.600;2022-11-20T21:27:38;67.00;;;5.53;;
5955;SDS011;3004;48.080;11.600;2022-11-20T21:30:10;67.43;;;5.70;;
5955;SDS011;3004;48.080;11.600;2022-11-20T21:32:44;66.97;;;5.33;;
5955;SDS011;3004;48.080;11.600;2022-11-20T21:35:14;66.67;;;5.03;;
5955;SDS011;3004;48.080;11.600;2022-11-20T21:37:51;66.30;;;4.90;;
5955;SDS011;3004;48.080;11.600;2022-11-20T21:40:19;66.20;;;4.73;;
5955;SDS011;3004;48.080;11.600;2022-11-20T21:43:01;65.90;;;4.40;;
5955;SDS011;3004;48.080;11.600;2022-11-20T21:45:38;66.00;;;4.20;;
5955;SDS011;3004;48.080;11.600;2022-11-20T21:48:09;68.53;;;5.27;;
5955;SDS011;3004;48.080;11.600;2022-11-20T21:50:37;65.37;;;3.70;;
5955;SDS011;3004;48.080;11.600;2022-11-20T21:55:58;64.90;;;3.30;;
5955;SDS011;3004;48.080;11.600;2022-11-20T21:58:32;65.53;;;3.37;;
5955;SDS011;3004;48.080;11.600;2022-11-20T22:01:09;65.87;;;3.83;;
5955;SDS011;3004;48.080;11.600;2022-11-20T22:03:50;65.60;;;3.90;;
5955;SDS011;3004;48.080;11.600;2022-11-20T22:06:28;65.70;;;4.10;;
5955;SDS011;3004;48.080;11.600;2022-11-20T22:09:08;66.47;;;4.30;;
5955;SDS011;3004;48.080;11.600;2022-11-20T22:15:13;67.27;;;5.33;;
5955;SDS011;3004;48.080;11.600;2022-11-20T22:17:50;67.67;;;5.80;;
5955;SDS011;3004;48.080;11.600;2022-11-20T22:20:33;67.50;;;5.97;;
5955;SDS011;3004;48.080;11.600;2022-11-20T22:23:03;67.60;;;6.23;;
5955;SDS011;3004;48.080;11.600;2022-11-20T22:34:27;68.50;;;6.80;;
5955;SDS011;3004;48.080;11.600;2022-11-20T22:37:00;68.60;;;6.90;;
5955;SDS011;3004;48.080;11.600;2022-11-20T22:42:16;68.97;;;6.93;;
5955;SDS011;3004;48.080;11.600;2022-11-20T22:44:43;70.77;;;9.43;;
5955;SDS011;3004;48.080;11.600;2022-11-20T22:47:11;68.87;;;7.17;;
5955;SDS011;3004;48.080;11.600;2022-11-20T22:49:39;68.57;;;7.20;;
